Time;durP1;ratioP1;P1;durP2;ratioP2;P2;SDS_P1;SDS_P2;PMS_P1;PMS_P2;Temp;Humidity;BMP_temperature;BMP_pressure;BME280_temperature;BME280_humidity;BME280_pressure;Samples;Min_cycle;Max_cycle;Signal;HPM_P1;HPM_P2
2022/01/30 00:01:33;;;;;;;20.33;11.40;;;;;;;;;;5012266;28;20109;-65
2022/01/30 00:03:59;;;;;;;21.60;12.57;;;;;;;;;;5012396;28;20099;-67
2022/01/30 00:06:24;;;;;;;21.40;12.65;;;;;;;;;;5011176;28;20049;-66
2022/01/30 00:08:50;;;;;;;21.00;12.75;;;;;;;;;;5011757;28;20033;-66
2022/01/30 00:11:21;;;;;;;18.67;12.45;;;;;;;;;;5012110;28;20065;-63
2022/01/30 00:13:47;;;;;;;23.95;12.38;;;;;;;;;;4988551;28;20112;-65
2022/01/30 00:16:16;;;;;;;18.38;11.52;;;;;;;;;;5011571;28;20030;-63
2022/01/30 00:21:29;;;;;;;21.83;12.77;;;;;;;;;;5011635;28;20046;-64
2022/01/30 00:24:02;;;;;;;21.23;11.93;;;;;;;;;;5011575;28;20104;-67
2022/01/30 00:26:31;;;;;;;22.65;11.73;;;;;;;;;;5011863;28;20030;-73
2022/01/30 00:28:58;;;;;;;20.67;12.15;;;;;;;;;;5008983;28;20030;-64
2022/01/30 00:31:25;;;;;;;18.42;11.45;;;;;;;;;;4991117;28;20034;-64
2022/01/30 00:33:52;;;;;;;19.23;11.32;;;;;;;;;;5010411;28;20542;-65
2022/01/30 00:36:18;;;;;;;18.17;11.20;;;;;;;;;;5010411;28;20066;-65
2022/01/30 00:38:43;;;;;;;19.75;10.05;;;;;;;;;;5011476;28;20061;-64
2022/01/30 00:41:12;;;;;;;18.95;10.13;;;;;;;;;;5015148;28;20480;-64
2022/01/30 00:43:37;;;;;;;20.60;11.15;;;;;;;;;;4992011;28;20030;-64
2022/01/30 00:46:03;;;;;;;14.85;8.70;;;;;;;;;;4991551;28;20070;-66
2022/01/30 00:48:29;;;;;;;16.33;8.70;;;;;;;;;;4975307;28;20033;-64
2022/01/30 00:50:55;;;;;;;16.17;9.05;;;;;;;;;;4975369;28;20447;-64
2022/01/30 00:53:21;;;;;;;16.70;8.63;;;;;;;;;;4974991;28;20027;-64
2022/01/30 00:55:47;;;;;;;15.60;8.18;;;;;;;;;;4975352;28;20042;-65
2022/01/30 00:58:13;;;;;;;14.80;7.97;;;;;;;;;;4975126;28;20385;-62
2022/01/30 01:00:39;;;;;;;13.45;7.57;;;;;;;;;;4976111;28;20070;-64
2022/01/30 01:03:05;;;;;;;12.10;8.05;;;;;;;;;;4974908;28;20059;-64
2022/01/30 01:05:33;;;;;;;15.52;8.80;;;;;;;;;;4975732;28;20450;-64
2022/01/30 01:08:08;;;;;;;13.48;7.93;;;;;;;;;;4974827;28;20022;-64
2022/01/30 01:11:02;;;;;;;13.85;8.38;;;;;;;;;;4976258;28;20043;-64
2022/01/30 01:23:50;;;;;;;13.63;8.68;;;;;;;;;;4956666;28;20091;-63
2022/01/30 01:26:18;;;;;;;13.93;7.90;;;;;;;;;;4954997;28;20421;-63
2022/01/30 01:28:44;;;;;;;12.63;7.68;;;;;;;;;;4954738;28;20438;-63
2022/01/30 01:31:10;;;;;;;14.40;7.65;;;;;;;;;;4956588;29;20078;-64
2022/01/30 01:33:51;;;;;;;10.55;6.78;;;;;;;;;;4956469;28;20122;-63
2022/01/30 01:36:17;;;;;;;11.23;6.60;;;;;;;;;;4955489;28;20059;-64
2022/01/30 01:38:42;;;;;;;10.50;6.30;;;;;;;;;;4973126;28;20530;-63
2022/01/30 01:41:08;;;;;;;10.90;6.32;;;;;;;;;;4975378;28;20042;-64
2022/01/30 01:43:36;;;;;;;13.75;7.38;;;;;;;;;;4975735;28;20045;-70
2022/01/30 01:46:02;;;;;;;13.70;7.38;;;;;;;;;;4976126;28;20039;-67
2022/01/30 01:48:34;;;;;;;11.68;6.85;;;;;;;;;;4974139;28;20109;-63
2022/01/30 01:51:16;;;;;;;13.50;7.05;;;;;;;;;;5006507;28;20121;-65
2022/01/30 01:53:42;;;;;;;14.85;7.80;;;;;;;;;;4975254;28;20038;-63
2022/01/30 01:56:08;;;;;;;10.88;6.80;;;;;;;;;;4973920;28;20114;-63
2022/01/30 01:58:35;;;;;;;14.07;7.15;;;;;;;;;;4973590;28;20432;-64
2022/01/30 02:01:24;;;;;;;10.10;6.75;;;;;;;;;;4964247;28;20035;-67
2022/01/30 02:03:50;;;;;;;12.63;7.47;;;;;;;;;;5006398;28;20039;-67
2022/01/30 02:06:19;;;;;;;13.45;7.80;;;;;;;;;;4973526;28;20433;-64
2022/01/30 02:08:53;;;;;;;11.85;7.20;;;;;;;;;;4973548;28;20039;-62
2022/01/30 02:11:33;;;;;;;12.25;6.72;;;;;;;;;;4974061;28;20046;-63
2022/01/30 02:14:33;;;;;;;13.90;7.03;;;;;;;;;;4973856;28;20050;-63
2022/01/30 02:27:48;;;;;;;12.25;5.70;;;;;;;;;;4974528;28;20086;-64
2022/01/30 02:30:18;;;;;;;10.70;6.28;;;;;;;;;;4973707;28;20035;-64
2022/01/30 02:32:46;;;;;;;10.60;6.32;;;;;;;;;;4973585;28;20041;-66
2022/01/30 02:35:12;;;;;;;10.30;6.68;;;;;;;;;;4974897;28;20035;-64
2022/01/30 02:37:38;;;;;;;11.05;6.68;;;;;;;;;;4973158;28;20042;-64
2022/01/30 02:40:08;;;;;;;10.88;6.70;;;;;;;;;;4974462;28;20475;-65
2022/01/30 02:42:37;;;;;;;9.57;5.80;;;;;;;;;;4973319;28;20031;-64
2022/01/30 02:45:06;;;;;;;10.68;7.43;;;;;;;;;;4973273;28;20474;-65
2022/01/30 02:47:51;;;;;;;11.18;5.75;;;;;;;;;;5005409;28;20037;-64
2022/01/30 02:50:33;;;;;;;;;;;;;;;;;;4974684;28;20490;-65
2022/01/30 02:53:03;;;;;;;8.90;6.00;;;;;;;;;;5005407;28;19920;-64
2022/01/30 02:55:29;;;;;;;12.02;5.97;;;;;;;;;;4973386;28;20114;-64
2022/01/30 02:57:56;;;;;;;9.98;5.72;;;;;;;;;;4973277;28;20122;-63
2022/01/30 03:00:21;;;;;;;11.13;6.18;;;;;;;;;;4973032;28;20023;-63
2022/01/30 03:02:48;;;;;;;9.95;5.80;;;;;;;;;;4973814;28;20035;-64
2022/01/30 03:05:16;;;;;;;9.65;5.78;;;;;;;;;;4972756;28;20448;-64
2022/01/30 03:07:41;;;;;;;9.85;5.75;;;;;;;;;;4973853;28;20066;-64
2022/01/30 03:10:07;;;;;;;10.38;5.85;;;;;;;;;;4972776;28;20039;-64
2022/01/30 03:12:33;;;;;;;10.30;5.80;;;;;;;;;;4973953;28;20045;-64
2022/01/30 03:14:59;;;;;;;11.25;6.13;;;;;;;;;;4972703;28;20026;-63
2022/01/30 03:17:25;;;;;;;9.93;5.78;;;;;;;;;;4972661;28;20038;-65
2022/01/30 03:19:51;;;;;;;9.30;5.68;;;;;;;;;;4972542;28;20105;-62
2022/01/30 03:22:17;;;;;;;9.88;6.22;;;;;;;;;;4972535;28;20043;-63
2022/01/30 03:24:43;;;;;;;9.85;5.60;;;;;;;;;;4972439;28;20042;-64
2022/01/30 03:27:20;;;;;;;9.98;6.60;;;;;;;;;;4972456;28;20043;-63
2022/01/30 03:30:03;;;;;;;9.30;5.95;;;;;;;;;;4972569;28;20058;-63
2022/01/30 03:32:58;;;;;;;10.23;6.00;;;;;;;;;;4977288;28;20035;-66
2022/01/30 03:35:24;;;;;;;8.80;5.40;;;;;;;;;;4991901;28;20039;-64
2022/01/30 03:37:51;;;;;;;10.02;6.40;;;;;;;;;;4991304;28;20024;-64
2022/01/30 03:40:18;;;;;;;10.20;6.18;;;;;;;;;;4991572;28;20035;-64
2022/01/30 03:42:43;;;;;;;11.45;5.65;;;;;;;;;;4991541;28;20473;-63
2022/01/30 03:45:14;;;;;;;12.05;5.95;;;;;;;;;;4991650;28;20038;-63
2022/01/30 03:47:40;;;;;;;9.10;5.75;;;;;;;;;;4991664;28;20037;-63
2022/01/30 03:50:06;;;;;;;9.90;5.88;;;;;;;;;;4991712;28;20121;-65
2022/01/30 03:52:32;;;;;;;8.25;5.25;;;;;;;;;;4991330;28;20084;-67
2022/01/30 03:54:58;;;;;;;9.80;5.57;;;;;;;;;;4991709;28;20026;-68
2022/01/30 03:57:24;;;;;;;12.65;5.78;;;;;;;;;;4992612;28;20034;-63
2022/01/30 03:59:50;;;;;;;9.00;5.55;;;;;;;;;;4991160;28;20056;-63
2022/01/30 04:02:17;;;;;;;12.75;5.93;;;;;;;;;;4975584;28;20125;-68
2022/01/30 04:04:43;;;;;;;10.27;6.00;;;;;;;;;;4971381;28;20031;-68
2022/01/30 04:07:09;;;;;;;9.13;5.10;;;;;;;;;;4972978;28;20111;-68
2022/01/30 04:09:47;;;;;;;10.88;5.50;;;;;;;;;;4973178;28;20033;-63
2022/01/30 04:12:26;;;;;;;10.38;5.82;;;;;;;;;;4971943;28;20033;-63
2022/01/30 04:15:15;;;;;;;9.40;4.70;;;;;;;;;;4971074;28;20078;-63
2022/01/30 04:18:12;;;;;;;11.50;5.88;;;;;;;;;;4973276;28;20493;-64
2022/01/30 04:20:51;;;;;;;10.00;5.78;;;;;;;;;;4973574;28;20054;-63
2022/01/30 04:23:39;;;;;;;10.35;5.40;;;;;;;;;;4972917;28;20066;-63
2022/01/30 04:26:23;;;;;;;11.40;6.18;;;;;;;;;;4953311;28;20042;-65
2022/01/30 04:29:08;;;;;;;9.93;5.72;;;;;;;;;;4983492;28;20092;-64
2022/01/30 04:32:13;;;;;;;;;;;;;;;;;;4989151;28;20038;-65
2022/01/30 04:34:58;;;;;;;7.97;5.57;;;;;;;;;;4991165;28;19961;-65
2022/01/30 04:59:53;;;;;;;12.43;6.53;;;;;;;;;;4970334;28;20046;-65
2022/01/30 05:08:10;;;;;;;12.20;6.22;;;;;;;;;;4971521;28;20043;-63
2022/01/30 05:10:49;;;;;;;10.15;6.50;;;;;;;;;;5004925;28;20121;-64
2022/01/30 05:13:37;;;;;;;13.18;6.80;;;;;;;;;;4973913;28;20413;-64
2022/01/30 05:16:31;;;;;;;16.27;6.97;;;;;;;;;;4972222;28;20051;-64
2022/01/30 05:19:16;;;;;;;14.75;6.88;;;;;;;;;;4973236;28;20046;-64
2022/01/30 05:21:55;;;;;;;11.90;6.65;;;;;;;;;;4971875;28;20043;-63
2022/01/30 05:24:35;;;;;;;11.65;6.40;;;;;;;;;;5010154;28;20114;-64
2022/01/30 05:27:07;;;;;;;11.88;6.75;;;;;;;;;;4995646;28;20045;-64
2022/01/30 05:29:40;;;;;;;10.37;6.13;;;;;;;;;;4996471;28;20041;-68
2022/01/30 05:32:16;;;;;;;14.85;7.72;;;;;;;;;;4994754;28;20033;-69
2022/01/30 05:35:17;;;;;;;13.07;6.63;;;;;;;;;;4993986;28;20042;-69
2022/01/30 05:37:57;;;;;;;14.13;8.50;;;;;;;;;;4987041;28;20497;-69
2022/01/30 05:40:42;;;;;;;15.30;8.65;;;;;;;;;;4965666;28;20143;-67
2022/01/30 05:43:08;;;;;;;11.13;7.05;;;;;;;;;;4956970;28;20090;-67
2022/01/30 05:46:05;;;;;;;12.35;7.70;;;;;;;;;;4957735;29;20063;-69
2022/01/30 05:48:54;;;;;;;14.05;8.05;;;;;;;;;;4974103;28;20501;-67
2022/01/30 05:51:44;;;;;;;10.68;7.00;;;;;;;;;;4988316;28;20058;-72
2022/01/30 05:54:16;;;;;;;18.70;8.10;;;;;;;;;;5025475;28;20042;-69
2022/01/30 05:56:42;;;;;;;14.25;7.97;;;;;;;;;;4994677;28;20042;-68
2022/01/30 05:59:16;;;;;;;15.13;8.30;;;;;;;;;;4994645;28;20027;-68
2022/01/30 06:02:02;;;;;;;14.75;6.75;;;;;;;;;;4994704;28;20092;-71
2022/01/30 06:04:28;;;;;;;13.55;7.40;;;;;;;;;;4982377;28;20038;-67
2022/01/30 06:06:56;;;;;;;12.50;6.57;;;;;;;;;;4963730;28;20426;-67
2022/01/30 06:09:21;;;;;;;10.52;6.75;;;;;;;;;;5018547;28;20038;-68
2022/01/30 06:11:51;;;;;;;14.65;6.85;;;;;;;;;;4994527;28;20088;-68
2022/01/30 06:14:17;;;;;;;11.13;6.70;;;;;;;;;;4995566;28;20113;-68
2022/01/30 06:16:43;;;;;;;14.35;6.97;;;;;;;;;;4993871;28;20117;-68
2022/01/30 06:19:28;;;;;;;13.70;8.15;;;;;;;;;;4988419;28;20050;-68
2022/01/30 06:22:12;;;;;;;14.30;8.93;;;;;;;;;;4975802;28;20482;-68
2022/01/30 06:24:57;;;;;;;14.65;7.88;;;;;;;;;;4976269;28;20045;-69
2022/01/30 06:27:55;;;;;;;11.27;7.50;;;;;;;;;;4975798;28;20038;-70
2022/01/30 06:30:39;;;;;;;19.23;8.10;;;;;;;;;;4975695;28;20121;-69
2022/01/30 06:33:24;;;;;;;18.08;10.15;;;;;;;;;;4963574;28;20050;-69
2022/01/30 06:36:13;;;;;;;22.17;11.63;;;;;;;;;;4962838;28;20039;-69
2022/01/30 06:38:49;;;;;;;23.33;12.48;;;;;;;;;;4978778;28;20050;-70
2022/01/30 06:41:35;;;;;;;20.65;12.13;;;;;;;;;;4969582;28;20053;-69
2022/01/30 06:44:19;;;;;;;23.13;12.95;;;;;;;;;;4973527;28;20096;-68
2022/01/30 06:47:05;;;;;;;23.35;13.27;;;;;;;;;;4995047;28;20464;-69
2022/01/30 06:49:50;;;;;;;18.58;11.13;;;;;;;;;;4994915;28;20053;-70
2022/01/30 06:52:31;;;;;;;22.77;11.52;;;;;;;;;;4994536;28;20045;-69
2022/01/30 06:55:15;;;;;;;19.75;10.82;;;;;;;;;;4994710;28;20077;-71
2022/01/30 06:57:56;;;;;;;19.50;11.18;;;;;;;;;;4994343;28;20555;-69
2022/01/30 07:00:41;;;;;;;19.05;11.07;;;;;;;;;;4994927;28;20369;-69
2022/01/30 07:03:25;;;;;;;17.02;10.70;;;;;;;;;;4994622;28;20045;-69
2022/01/30 07:06:14;;;;;;;14.70;9.10;;;;;;;;;;4993387;28;20070;-69
2022/01/30 07:08:41;;;;;;;15.13;9.20;;;;;;;;;;4993347;28;20072;-73
2022/01/30 07:11:06;;;;;;;18.77;9.38;;;;;;;;;;4979848;28;20062;-72
2022/01/30 07:13:32;;;;;;;12.73;7.93;;;;;;;;;;4974443;28;20034;-69
2022/01/30 07:15:58;;;;;;;13.77;7.30;;;;;;;;;;4974531;28;20030;-70
2022/01/30 07:18:24;;;;;;;11.45;6.40;;;;;;;;;;4986652;28;20057;-74
2022/01/30 07:20:52;;;;;;;15.18;7.68;;;;;;;;;;4992804;28;20049;-68
2022/01/30 07:23:18;;;;;;;13.63;7.22;;;;;;;;;;4993676;28;20628;-70
2022/01/30 07:25:44;;;;;;;15.77;7.43;;;;;;;;;;4993599;28;20030;-70
2022/01/30 07:28:10;;;;;;;10.95;6.85;;;;;;;;;;4993607;28;20049;-70
2022/01/30 07:30:36;;;;;;;12.35;6.97;;;;;;;;;;4989703;28;20031;-69
2022/01/30 07:33:03;;;;;;;11.13;7.38;;;;;;;;;;4981251;28;20113;-70
2022/01/30 07:35:30;;;;;;;12.68;8.05;;;;;;;;;;4996158;28;20026;-69
2022/01/30 07:37:56;;;;;;;12.93;8.02;;;;;;;;;;4987615;28;20489;-69
2022/01/30 07:40:21;;;;;;;11.32;7.30;;;;;;;;;;4981718;28;20022;-70
2022/01/30 07:42:47;;;;;;;13.77;8.30;;;;;;;;;;4987791;28;20030;-70
2022/01/30 07:45:15;;;;;;;12.27;7.45;;;;;;;;;;4991754;28;20031;-67
2022/01/30 07:47:41;;;;;;;13.18;7.00;;;;;;;;;;4993318;28;20108;-69
2022/01/30 07:50:08;;;;;;;10.15;6.55;;;;;;;;;;4993186;28;20026;-72
2022/01/30 07:52:34;;;;;;;10.40;6.90;;;;;;;;;;4993854;28;20117;-69
2022/01/30 07:55:01;;;;;;;14.40;6.95;;;;;;;;;;4992141;28;20101;-68
2022/01/30 07:57:27;;;;;;;13.38;7.72;;;;;;;;;;4992512;28;20109;-67
2022/01/30 07:59:52;;;;;;;9.15;6.35;;;;;;;;;;4993846;28;20105;-73
2022/01/30 08:02:18;;;;;;;12.77;7.25;;;;;;;;;;4993398;28;20034;-71
2022/01/30 08:04:44;;;;;;;9.70;5.85;;;;;;;;;;5016328;28;20038;-73
2022/01/30 08:07:10;;;;;;;9.38;5.50;;;;;;;;;;4973595;28;20031;-70
2022/01/30 08:09:36;;;;;;;9.35;5.43;;;;;;;;;;4974449;28;20036;-67
2022/01/30 08:12:02;;;;;;;8.98;6.22;;;;;;;;;;4977633;28;20039;-75
2022/01/30 08:14:28;;;;;;;12.63;6.38;;;;;;;;;;5005210;28;20102;-72
2022/01/30 08:16:54;;;;;;;11.13;6.20;;;;;;;;;;4973724;28;20426;-71
2022/01/30 08:19:22;;;;;;;11.43;6.10;;;;;;;;;;4973490;28;20114;-72
2022/01/30 08:21:48;;;;;;;12.75;7.03;;;;;;;;;;4973372;28;20054;-74
2022/01/30 08:24:14;;;;;;;9.88;5.75;;;;;;;;;;4973746;28;20035;-73
2022/01/30 08:26:40;;;;;;;12.10;5.85;;;;;;;;;;4973328;28;20110;-70
2022/01/30 08:29:06;;;;;;;9.75;5.35;;;;;;;;;;4973733;28;20105;-71
2022/01/30 08:31:32;;;;;;;8.80;5.50;;;;;;;;;;4973435;28;20536;-72
2022/01/30 08:33:57;;;;;;;8.25;5.22;;;;;;;;;;4972824;28;20106;-71
2022/01/30 08:36:23;;;;;;;9.10;5.18;;;;;;;;;;4973475;28;20504;-71
2022/01/30 08:38:49;;;;;;;9.27;5.25;;;;;;;;;;4973164;28;20070;-71
2022/01/30 08:41:14;;;;;;;13.90;6.93;;;;;;;;;;4973294;28;20435;-71
2022/01/30 08:43:40;;;;;;;18.00;8.23;;;;;;;;;;4973558;28;20019;-71
2022/01/30 08:46:06;;;;;;;12.55;7.38;;;;;;;;;;4973000;28;20039;-70
2022/01/30 08:48:33;;;;;;;11.43;6.93;;;;;;;;;;4973007;28;20031;-71
2022/01/30 08:50:59;;;;;;;12.55;6.50;;;;;;;;;;4973507;28;20078;-67
2022/01/30 08:53:26;;;;;;;10.63;6.00;;;;;;;;;;4973432;28;20428;-76
2022/01/30 08:55:52;;;;;;;11.15;6.00;;;;;;;;;;4974644;28;20053;-68
2022/01/30 08:58:18;;;;;;;11.18;5.75;;;;;;;;;;4992289;28;20030;-77
2022/01/30 09:00:44;;;;;;;9.90;6.72;;;;;;;;;;4993441;28;20038;-75
2022/01/30 09:03:11;;;;;;;9.52;5.95;;;;;;;;;;4987851;28;20097;-68
2022/01/30 09:05:37;;;;;;;8.57;5.45;;;;;;;;;;4976677;28;20471;-68
2022/01/30 09:08:04;;;;;;;13.60;6.93;;;;;;;;;;4975377;28;20073;-68
2022/01/30 09:10:35;;;;;;;10.95;6.25;;;;;;;;;;4975407;28;20041;-70
2022/01/30 09:13:01;;;;;;;10.68;4.93;;;;;;;;;;4977539;28;20034;-69
2022/01/30 09:15:27;;;;;;;8.00;4.38;;;;;;;;;;4976753;28;20034;-67
2022/01/30 09:17:56;;;;;;;9.68;5.22;;;;;;;;;;4982463;28;20034;-69
2022/01/30 09:20:21;;;;;;;7.15;4.78;;;;;;;;;;4995806;28;20110;-69
2022/01/30 09:22:48;;;;;;;8.43;5.25;;;;;;;;;;4995752;28;20034;-66
2022/01/30 09:25:14;;;;;;;8.77;5.30;;;;;;;;;;4989933;28;20118;-75
2022/01/30 09:27:40;;;;;;;8.95;4.90;;;;;;;;;;4972546;28;20125;-68
2022/01/30 09:30:07;;;;;;;8.05;4.50;;;;;;;;;;4986195;28;20034;-68
2022/01/30 09:32:33;;;;;;;10.50;5.30;;;;;;;;;;4995513;28;20050;-71
2022/01/30 09:34:59;;;;;;;9.48;4.63;;;;;;;;;;4990991;28;20030;-66
2022/01/30 09:37:25;;;;;;;10.07;3.88;;;;;;;;;;4975415;28;20039;-65
2022/01/30 09:39:51;;;;;;;5.68;3.65;;;;;;;;;;4976921;28;20026;-69
2022/01/30 09:42:16;;;;;;;6.72;3.90;;;;;;;;;;4993320;28;20042;-69
2022/01/30 09:44:43;;;;;;;7.15;4.60;;;;;;;;;;4989741;28;20029;-67
2022/01/30 09:47:16;;;;;;;10.00;4.88;;;;;;;;;;4986540;28;20129;-69
2022/01/30 09:49:55;;;;;;;7.65;3.88;;;;;;;;;;4995048;28;20038;-69
2022/01/30 09:52:21;;;;;;;12.25;5.90;;;;;;;;;;4981578;28;20482;-73
2022/01/30 09:54:48;;;;;;;6.38;4.28;;;;;;;;;;4971615;28;20090;-74
2022/01/30 09:57:14;;;;;;;9.13;5.28;;;;;;;;;;4978123;28;20035;-71
2022/01/30 09:59:40;;;;;;;6.47;4.55;;;;;;;;;;4973411;28;20486;-70
2022/01/30 10:02:07;;;;;;;6.22;4.10;;;;;;;;;;4984271;28;20030;-76
2022/01/30 10:04:34;;;;;;;7.72;4.38;;;;;;;;;;4961377;28;20031;-68
2022/01/30 10:07:15;;;;;;;7.93;4.53;;;;;;;;;;4953513;28;20047;-73
2022/01/30 10:09:48;;;;;;;9.27;4.63;;;;;;;;;;4953341;28;20406;-69
2022/01/30 10:12:20;;;;;;;6.28;4.40;;;;;;;;;;4954788;28;20042;-69
2022/01/30 10:15:03;;;;;;;6.30;3.90;;;;;;;;;;4954359;28;20035;-73
2022/01/30 10:17:37;;;;;;;7.47;4.22;;;;;;;;;;4954691;28;20181;-69
2022/01/30 10:20:17;;;;;;;6.05;4.13;;;;;;;;;;4954551;28;20126;-70
2022/01/30 10:22:57;;;;;;;6.88;4.20;;;;;;;;;;4953897;28;20031;-70
2022/01/30 10:25:22;;;;;;;8.00;4.93;;;;;;;;;;4955377;28;20549;-71
2022/01/30 10:28:03;;;;;;;6.85;4.07;;;;;;;;;;4956225;28;20031;-69
2022/01/30 10:30:29;;;;;;;8.05;4.80;;;;;;;;;;4955924;29;20043;-69
2022/01/30 10:32:56;;;;;;;9.07;4.20;;;;;;;;;;4955631;28;20034;-67
2022/01/30 10:35:22;;;;;;;10.63;5.68;;;;;;;;;;4955386;28;20422;-68
2022/01/30 10:37:48;;;;;;;9.45;4.60;;;;;;;;;;4955025;28;20027;-69
2022/01/30 10:40:19;;;;;;;6.45;4.07;;;;;;;;;;4955479;29;20032;-67
2022/01/30 10:42:50;;;;;;;7.47;3.67;;;;;;;;;;4955681;28;20047;-69
2022/01/30 10:45:18;;;;;;;6.57;4.30;;;;;;;;;;4955705;28;20047;-70
2022/01/30 10:47:45;;;;;;;8.52;4.65;;;;;;;;;;4955716;28;20042;-74
2022/01/30 10:50:17;;;;;;;9.35;5.07;;;;;;;;;;4955529;28;20035;-73
2022/01/30 10:52:58;;;;;;;10.80;6.00;;;;;;;;;;4955482;28;20498;-69
2022/01/30 10:55:37;;;;;;;7.55;4.80;;;;;;;;;;4955635;28;20079;-69
2022/01/30 10:58:04;;;;;;;9.30;4.57;;;;;;;;;;4987617;28;20385;-71
2022/01/30 11:00:43;;;;;;;11.10;4.80;;;;;;;;;;4994086;28;20117;-67
2022/01/30 11:03:10;;;;;;;10.05;5.82;;;;;;;;;;5025545;28;20042;-68
2022/01/30 11:05:58;;;;;;;9.63;4.85;;;;;;;;;;4994211;28;20037;-68
2022/01/30 11:08:25;;;;;;;13.00;7.20;;;;;;;;;;4993693;28;20493;-68
2022/01/30 11:11:22;;;;;;;11.63;5.45;;;;;;;;;;4993928;28;20109;-67
2022/01/30 11:14:03;;;;;;;11.05;6.00;;;;;;;;;;4993485;28;20031;-69
2022/01/30 11:19:17;;;;;;;8.73;4.28;;;;;;;;;;4993893;28;20046;-68
2022/01/30 11:21:44;;;;;;;8.45;4.80;;;;;;;;;;4992646;28;20038;-69
2022/01/30 11:24:14;;;;;;;8.20;4.93;;;;;;;;;;4993621;28;20058;-68
2022/01/30 11:26:40;;;;;;;7.72;4.00;;;;;;;;;;4993742;28;20405;-67
2022/01/30 11:29:10;;;;;;;7.90;4.30;;;;;;;;;;4993609;28;20067;-69
2022/01/30 11:31:36;;;;;;;9.73;5.13;;;;;;;;;;4993469;28;20092;-67
2022/01/30 11:34:02;;;;;;;7.53;4.53;;;;;;;;;;4993806;28;20110;-67
2022/01/30 11:36:28;;;;;;;10.77;6.40;;;;;;;;;;4992429;28;20034;-69
2022/01/30 11:38:54;;;;;;;7.47;4.50;;;;;;;;;;4993410;28;20070;-70
2022/01/30 11:41:20;;;;;;;8.70;4.75;;;;;;;;;;4993249;28;20070;-67
2022/01/30 11:44:19;;;;;;;10.65;5.57;;;;;;;;;;4993586;28;20534;-68
2022/01/30 11:47:07;;;;;;;7.18;4.18;;;;;;;;;;4991553;28;20073;-68
2022/01/30 11:49:41;;;;;;;9.98;6.00;;;;;;;;;;4993490;28;20042;-70
2022/01/30 11:52:11;;;;;;;11.95;4.97;;;;;;;;;;4993248;28;20046;-69
2022/01/30 11:54:42;;;;;;;7.63;5.18;;;;;;;;;;4993350;28;20030;-66
2022/01/30 11:57:20;;;;;;;14.10;6.72;;;;;;;;;;4993446;28;20122;-72
2022/01/30 11:59:48;;;;;;;13.38;6.13;;;;;;;;;;4993287;28;20069;-67
2022/01/30 12:02:35;;;;;;;8.88;4.80;;;;;;;;;;4993045;28;20088;-72
2022/01/30 12:05:06;;;;;;;11.10;6.32;;;;;;;;;;4991807;28;20045;-68
2022/01/30 12:07:42;;;;;;;10.55;5.68;;;;;;;;;;4992632;28;20041;-69
2022/01/30 12:10:20;;;;;;;13.32;5.93;;;;;;;;;;4993113;28;20050;-66
2022/01/30 12:12:47;;;;;;;16.58;7.38;;;;;;;;;;4993180;28;20037;-68
2022/01/30 12:15:35;;;;;;;10.65;5.38;;;;;;;;;;4977192;28;20493;-68
2022/01/30 12:18:02;;;;;;;11.55;5.10;;;;;;;;;;4973416;28;20043;-69
2022/01/30 12:20:52;;;;;;;9.15;5.10;;;;;;;;;;4973115;28;20466;-69
2022/01/30 12:23:43;;;;;;;10.75;5.38;;;;;;;;;;4973596;28;20081;-70
2022/01/30 12:26:16;;;;;;;8.57;4.50;;;;;;;;;;4970904;28;20434;-67
2022/01/30 12:28:43;;;;;;;10.00;5.07;;;;;;;;;;4973162;28;20042;-67
2022/01/30 12:31:30;;;;;;;8.75;5.00;;;;;;;;;;4973420;28;20154;-68
2022/01/30 12:34:16;;;;;;;8.80;5.07;;;;;;;;;;4973286;28;20047;-68
2022/01/30 12:36:50;;;;;;;7.03;4.65;;;;;;;;;;4975465;28;20074;-68
2022/01/30 12:39:18;;;;;;;6.50;3.97;;;;;;;;;;4977346;28;20046;-69
2022/01/30 12:41:44;;;;;;;6.95;4.20;;;;;;;;;;4977304;28;20051;-69
2022/01/30 12:44:15;;;;;;;8.02;4.78;;;;;;;;;;4976524;28;20470;-70
2022/01/30 12:46:48;;;;;;;9.20;5.28;;;;;;;;;;4977014;28;20034;-68
2022/01/30 12:49:28;;;;;;;6.75;4.60;;;;;;;;;;4977174;28;20118;-68
2022/01/30 12:51:57;;;;;;;10.73;5.45;;;;;;;;;;4988824;28;20378;-66
2022/01/30 12:54:37;;;;;;;9.48;5.63;;;;;;;;;;4957960;28;20027;-69
2022/01/30 12:57:04;;;;;;;7.18;4.53;;;;;;;;;;4957403;28;20070;-68
2022/01/30 12:59:30;;;;;;;6.68;4.10;;;;;;;;;;4957174;28;20038;-68
2022/01/30 13:02:04;;;;;;;9.73;5.97;;;;;;;;;;4976990;28;20046;-71
2022/01/30 13:04:30;;;;;;;8.13;5.35;;;;;;;;;;4977073;28;20066;-68
2022/01/30 13:06:56;;;;;;;8.38;4.65;;;;;;;;;;4976888;28;20418;-68
2022/01/30 13:09:25;;;;;;;8.40;4.90;;;;;;;;;;4977100;28;20030;-68
2022/01/30 13:12:02;;;;;;;7.22;4.78;;;;;;;;;;4976784;28;20034;-72
2022/01/30 13:14:37;;;;;;;7.07;4.05;;;;;;;;;;4976924;28;20371;-70
2022/01/30 13:17:04;;;;;;;9.15;4.95;;;;;;;;;;4976639;28;20035;-71
2022/01/30 13:19:38;;;;;;;9.35;5.00;;;;;;;;;;4976494;28;20022;-68
2022/01/30 13:22:08;;;;;;;9.75;5.07;;;;;;;;;;4975400;28;20448;-67
2022/01/30 13:24:34;;;;;;;7.95;4.75;;;;;;;;;;4978381;28;20069;-68
2022/01/30 13:27:03;;;;;;;9.02;5.38;;;;;;;;;;4966660;28;20031;-69
2022/01/30 13:29:33;;;;;;;8.00;4.72;;;;;;;;;;4975195;28;20481;-70
2022/01/30 13:32:05;;;;;;;6.53;3.92;;;;;;;;;;4972952;28;20113;-68
2022/01/30 13:34:32;;;;;;;6.97;4.10;;;;;;;;;;4968726;28;20120;-68
2022/01/30 13:37:05;;;;;;;8.00;4.70;;;;;;;;;;4982524;28;20029;-70
2022/01/30 13:44:51;;;;;;;8.05;4.95;;;;;;;;;;4991426;28;20049;-68
2022/01/30 13:47:19;;;;;;;7.55;4.22;;;;;;;;;;4991760;28;20026;-70
2022/01/30 13:49:49;;;;;;;8.02;4.53;;;;;;;;;;4968200;28;20067;-69
2022/01/30 13:52:18;;;;;;;8.93;4.70;;;;;;;;;;4997370;28;20390;-74
2022/01/30 13:55:00;;;;;;;8.35;5.22;;;;;;;;;;4982206;28;20030;-68
2022/01/30 13:57:34;;;;;;;5.68;3.88;;;;;;;;;;4969157;28;20030;-68
2022/01/30 14:00:18;;;;;;;8.50;4.40;;;;;;;;;;4973659;28;20058;-68
2022/01/30 14:02:56;;;;;;;8.25;4.22;;;;;;;;;;4954774;28;20474;-73
2022/01/30 14:05:32;;;;;;;8.63;4.40;;;;;;;;;;4956973;28;20134;-70
2022/01/30 14:08:00;;;;;;;8.48;4.80;;;;;;;;;;4971988;28;20474;-69
2022/01/30 14:10:33;;;;;;;7.47;4.50;;;;;;;;;;4974758;28;20035;-70
2022/01/30 14:13:03;;;;;;;17.05;7.80;;;;;;;;;;4973186;28;20050;-75
2022/01/30 14:15:34;;;;;;;8.38;4.65;;;;;;;;;;4974157;28;20026;-72
2022/01/30 14:18:07;;;;;;;9.82;5.13;;;;;;;;;;4974757;28;20041;-67
2022/01/30 14:20:33;;;;;;;10.07;4.50;;;;;;;;;;4917380;28;1545110;-70
2022/01/30 14:23:05;;;;;;;10.30;5.50;;;;;;;;;;4972357;28;20281;-70
2022/01/30 14:25:31;;;;;;;9.05;5.78;;;;;;;;;;4973766;28;20545;-72
2022/01/30 14:27:57;;;;;;;10.60;5.72;;;;;;;;;;4970577;28;20133;-67
2022/01/30 14:30:36;;;;;;;9.27;5.00;;;;;;;;;;4964588;28;20041;-68
2022/01/30 14:33:02;;;;;;;8.82;4.93;;;;;;;;;;4969972;28;20474;-69
2022/01/30 14:35:34;;;;;;;11.10;5.43;;;;;;;;;;4974177;28;20033;-68
2022/01/30 14:38:01;;;;;;;12.38;6.78;;;;;;;;;;4973233;28;20030;-68
2022/01/30 14:40:27;;;;;;;10.02;5.93;;;;;;;;;;4966681;28;20038;-71
2022/01/30 14:42:53;;;;;;;10.20;5.45;;;;;;;;;;4966907;28;20030;-68
2022/01/30 14:45:19;;;;;;;8.98;5.68;;;;;;;;;;4963902;28;20390;-69
2022/01/30 14:47:45;;;;;;;12.05;6.72;;;;;;;;;;4955645;28;20054;-72
2022/01/30 14:50:10;;;;;;;12.10;6.53;;;;;;;;;;4955574;28;20029;-69
2022/01/30 14:52:37;;;;;;;12.43;6.65;;;;;;;;;;4960998;28;20043;-67
2022/01/30 14:55:04;;;;;;;12.50;7.22;;;;;;;;;;4966821;28;20085;-67
2022/01/30 14:57:29;;;;;;;25.17;9.45;;;;;;;;;;4992034;28;20046;-74
2022/01/30 14:59:55;;;;;;;28.65;12.38;;;;;;;;;;4993631;28;20030;-68
2022/01/30 15:02:21;;;;;;;19.40;9.00;;;;;;;;;;4990876;28;20034;-68
2022/01/30 15:04:47;;;;;;;13.15;6.82;;;;;;;;;;4966076;28;20055;-67
2022/01/30 15:07:14;;;;;;;13.30;7.43;;;;;;;;;;4954820;28;20043;-68
2022/01/30 15:09:40;;;;;;;14.70;8.65;;;;;;;;;;4955532;28;20031;-69
2022/01/30 15:12:12;;;;;;;14.82;7.93;;;;;;;;;;4954696;28;20040;-69
2022/01/30 15:14:40;;;;;;;12.52;7.50;;;;;;;;;;4973391;28;20502;-69
2022/01/30 15:17:08;;;;;;;12.60;6.78;;;;;;;;;;4969007;28;20503;-68
2022/01/30 15:19:35;;;;;;;9.63;5.70;;;;;;;;;;4976333;28;20066;-68
2022/01/30 15:22:02;;;;;;;11.00;6.85;;;;;;;;;;4959804;28;20047;-67
2022/01/30 15:24:28;;;;;;;11.27;6.47;;;;;;;;;;4968286;28;20026;-68
2022/01/30 15:26:54;;;;;;;14.82;7.30;;;;;;;;;;4972925;28;20181;-67
2022/01/30 15:29:20;;;;;;;10.57;6.93;;;;;;;;;;4973088;28;20059;-70
2022/01/30 15:31:46;;;;;;;11.13;6.45;;;;;;;;;;4973171;28;20057;-69
2022/01/30 15:34:13;;;;;;;12.07;7.13;;;;;;;;;;4973263;28;20061;-67
2022/01/30 15:36:40;;;;;;;16.33;8.32;;;;;;;;;;4973812;28;20031;-70
2022/01/30 15:39:07;;;;;;;13.07;8.05;;;;;;;;;;4981343;28;20093;-69
2022/01/30 15:41:33;;;;;;;15.27;9.10;;;;;;;;;;4996978;28;20082;-68
2022/01/30 15:44:02;;;;;;;14.90;9.55;;;;;;;;;;4975825;28;20339;-69
2022/01/30 15:49:14;;;;;;;18.55;10.30;;;;;;;;;;4972089;28;20030;-69
2022/01/30 15:51:42;;;;;;;16.73;9.55;;;;;;;;;;4972719;28;20018;-71
2022/01/30 15:54:18;;;;;;;16.63;9.85;;;;;;;;;;4972086;28;20067;-69
2022/01/30 15:56:44;;;;;;;16.75;10.30;;;;;;;;;;4971740;28;20034;-69
2022/01/30 15:59:10;;;;;;;21.38;11.57;;;;;;;;;;5004307;28;20070;-68
2022/01/30 16:01:35;;;;;;;20.17;11.68;;;;;;;;;;4990815;28;20037;-69